createdAt,value
2018-08-11T00:01:10.634Z,76.50
2018-08-11T00:03:39.190Z,77.60
2018-08-11T00:06:07.806Z,77.80
2018-08-11T00:08:36.365Z,78.00
2018-08-11T00:11:05.015Z,78.60
2018-08-11T00:13:33.647Z,78.60
2018-08-11T00:16:02.202Z,79.00
2018-08-11T00:18:30.767Z,78.30
2018-08-11T00:20:59.326Z,78.40
2018-08-11T00:23:27.893Z,78.90
2018-08-11T00:25:56.503Z,78.60
2018-08-11T00:28:25.113Z,78.90
2018-08-11T00:30:53.785Z,78.90
2018-08-11T00:33:22.355Z,78.90
2018-08-11T00:35:50.899Z,78.70
2018-08-11T00:38:19.485Z,78.80
2018-08-11T00:40:48.095Z,78.70
2018-08-11T00:43:16.676Z,78.80
2018-08-11T00:45:46.070Z,78.80
2018-08-11T00:48:14.988Z,79.00
2018-08-11T00:50:43.611Z,78.30
2018-08-11T00:53:12.206Z,78.90
2018-08-11T00:55:40.790Z,79.20
2018-08-11T00:58:09.411Z,79.30
2018-08-11T01:00:38.010Z,79.50
2018-08-11T01:03:06.714Z,79.40
2018-08-11T01:05:35.379Z,79.20
2018-08-11T01:08:03.994Z,79.40
2018-08-11T01:10:32.554Z,79.50
2018-08-11T01:13:01.189Z,79.60
2018-08-11T01:15:29.771Z,79.30
2018-08-11T01:17:58.293Z,79.10
2018-08-11T01:20:26.893Z,79.90
2018-08-11T01:22:55.439Z,79.20
2018-08-11T01:25:23.993Z,79.10
2018-08-11T01:27:52.594Z,79.00
2018-08-11T01:30:22.062Z,79.40
2018-08-11T01:32:50.621Z,79.50
2018-08-11T01:35:19.327Z,79.60
2018-08-11T01:37:48.194Z,79.50
2018-08-11T01:40:17.318Z,79.90
2018-08-11T01:43:00.443Z,79.80
2018-08-11T01:45:29.012Z,79.60
2018-08-11T01:47:57.591Z,80.30
2018-08-11T01:50:26.175Z,79.60
2018-08-11T01:52:54.791Z,80.30
2018-08-11T01:55:23.350Z,80.60
2018-08-11T01:57:51.919Z,80.50
2018-08-11T02:00:21.570Z,81.00
2018-08-11T02:02:50.790Z,81.20
2018-08-11T02:05:19.434Z,82.20
2018-08-11T02:07:48.063Z,83.10
2018-08-11T02:10:19.589Z,83.50
2018-08-11T02:12:48.570Z,83.90
2018-08-11T02:15:17.465Z,84.00
2018-08-11T02:17:46.051Z,83.20
2018-08-11T02:20:17.104Z,82.90
2018-08-11T02:22:46.562Z,83.00
2018-08-11T02:25:15.218Z,83.60
2018-08-11T02:27:43.838Z,84.30
2018-08-11T02:30:17.423Z,83.30
2018-08-11T02:32:46.066Z,82.50
2018-08-11T02:35:14.949Z,82.70
2018-08-11T02:37:43.769Z,83.60
2018-08-11T02:40:14.892Z,83.10
2018-08-11T02:42:43.521Z,81.90
2018-08-11T02:45:14.206Z,81.10
2018-08-11T02:47:42.869Z,80.80
2018-08-11T02:50:12.385Z,81.10
2018-08-11T02:52:44.454Z,81.70
2018-08-11T02:55:13.043Z,81.50
2018-08-11T02:57:41.580Z,81.00
2018-08-11T03:00:11.634Z,80.80
2018-08-11T03:02:40.183Z,80.90
2018-08-11T03:05:08.759Z,80.70
2018-08-11T03:07:37.987Z,81.10
2018-08-11T03:10:08.315Z,82.20
2018-08-11T03:12:36.946Z,82.80
2018-08-11T03:15:06.631Z,82.60
2018-08-11T03:17:35.166Z,83.40
2018-08-11T03:20:04.631Z,82.80
2018-08-11T03:22:33.182Z,82.70
2018-08-11T03:25:01.736Z,83.00
2018-08-11T03:27:30.342Z,82.40
2018-08-11T03:29:58.879Z,83.10
2018-08-11T03:32:27.430Z,84.30
2018-08-11T03:34:55.983Z,84.90
2018-08-11T03:37:24.537Z,85.50
2018-08-11T03:39:53.288Z,86.30
2018-08-11T03:42:21.821Z,87.30
2018-08-11T03:44:50.406Z,86.40
2018-08-11T03:47:18.945Z,86.50
2018-08-11T03:49:47.508Z,85.90
2018-08-11T03:52:16.068Z,85.10
2018-08-11T03:54:44.599Z,85.00
2018-08-11T03:57:13.278Z,84.80
2018-08-11T03:59:41.859Z,84.70
2018-08-11T04:02:10.484Z,85.30
2018-08-11T04:04:39.038Z,84.50
2018-08-11T04:07:08.356Z,83.70
2018-08-11T04:09:36.986Z,84.30
2018-08-11T04:12:05.555Z,85.20
2018-08-11T04:14:34.114Z,84.70
2018-08-11T04:17:02.682Z,85.50
2018-08-11T04:19:31.270Z,86.30
2018-08-11T04:21:59.818Z,86.70
2018-08-11T04:24:28.386Z,86.90
2018-08-11T04:26:56.954Z,86.70
2018-08-11T04:29:25.528Z,87.20
2018-08-11T04:31:54.110Z,86.30
2018-08-11T04:34:22.666Z,86.00
2018-08-11T04:36:51.256Z,84.00
2018-08-11T04:39:19.862Z,83.40
2018-08-11T04:41:48.453Z,84.10
2018-08-11T04:44:17.002Z,83.40
2018-08-11T04:46:45.590Z,83.70
2018-08-11T04:49:14.112Z,84.30
2018-08-11T04:51:42.729Z,82.60
2018-08-11T04:54:11.339Z,81.50
2018-08-11T04:56:39.870Z,80.50
2018-08-11T04:59:08.457Z,80.50
2018-08-11T05:01:37.027Z,79.80
2018-08-11T05:04:05.619Z,77.30
2018-08-11T05:06:34.170Z,76.20
2018-08-11T05:09:02.738Z,76.50
2018-08-11T05:11:31.333Z,74.50
2018-08-11T05:13:59.866Z,72.30
2018-08-11T05:16:28.444Z,68.90
2018-08-11T05:18:57.007Z,68.50
2018-08-11T05:21:25.586Z,67.90
2018-08-11T05:23:54.146Z,67.20
2018-08-11T05:26:22.719Z,67.00
2018-08-11T05:28:51.317Z,67.00
2018-08-11T05:31:19.866Z,67.20
2018-08-11T05:33:48.443Z,67.80
2018-08-11T05:36:17.032Z,67.70
2018-08-11T05:38:45.579Z,67.00
2018-08-11T05:41:14.135Z,66.30
2018-08-11T05:43:42.698Z,65.80
2018-08-11T05:46:11.278Z,65.30
2018-08-11T05:48:39.852Z,64.50
2018-08-11T05:51:08.429Z,63.00
2018-08-11T05:53:36.976Z,62.60
2018-08-11T05:56:05.706Z,65.20
2018-08-11T05:58:34.251Z,65.10
2018-08-11T06:01:02.938Z,66.40
2018-08-11T06:03:31.566Z,66.70
2018-08-11T06:06:00.134Z,60.60
2018-08-11T06:08:28.739Z,56.80
2018-08-11T06:10:57.310Z,52.20
2018-08-11T06:13:25.860Z,48.70
2018-08-11T06:15:54.398Z,49.50
2018-08-11T06:18:23.047Z,47.80
2018-08-11T06:20:51.623Z,47.50
2018-08-11T06:23:20.162Z,46.60
2018-08-11T06:25:48.701Z,46.00
2018-08-11T06:28:17.253Z,44.20
2018-08-11T06:30:45.844Z,44.70
2018-08-11T06:33:14.394Z,44.90
2018-08-11T06:35:42.985Z,44.80
2018-08-11T06:38:11.543Z,39.60
2018-08-11T06:40:40.155Z,40.10
2018-08-11T06:43:08.722Z,42.20
2018-08-11T06:45:37.290Z,40.00
2018-08-11T06:48:06.340Z,37.50
2018-08-11T06:50:34.983Z,37.40
2018-08-11T06:53:03.574Z,34.00
2018-08-11T06:55:32.128Z,33.70
2018-08-11T06:58:00.692Z,32.80
2018-08-11T07:00:29.294Z,29.40
2018-08-11T07:02:57.799Z,29.50
2018-08-11T07:05:26.362Z,28.20
2018-08-11T07:07:54.922Z,27.20
2018-08-11T07:10:23.526Z,26.40
2018-08-11T07:12:52.073Z,26.90
2018-08-11T07:15:20.737Z,27.90
2018-08-11T07:17:49.277Z,27.70
2018-08-11T07:20:17.889Z,26.90
2018-08-11T07:22:46.533Z,25.30
2018-08-11T07:25:15.113Z,24.20
2018-08-11T07:27:43.766Z,25.10
2018-08-11T07:30:12.324Z,25.30
2018-08-11T07:32:40.973Z,24.60
2018-08-11T07:35:09.537Z,24.50
2018-08-11T07:37:38.128Z,24.10
2018-08-11T07:40:06.838Z,22.90
2018-08-11T07:42:35.409Z,21.20
2018-08-11T07:45:04.043Z,20.50
2018-08-11T07:47:32.693Z,20.20
2018-08-11T07:50:01.231Z,20.20
2018-08-11T07:52:29.791Z,20.30
2018-08-11T07:54:58.382Z,22.10
2018-08-11T07:57:26.966Z,24.10
2018-08-11T07:59:55.556Z,23.90
2018-08-11T08:02:24.086Z,22.20
2018-08-11T08:04:53.058Z,20.10
2018-08-11T08:07:21.621Z,19.80
2018-08-11T08:09:50.200Z,20.10
2018-08-11T08:12:18.758Z,21.20
2018-08-11T08:14:47.301Z,19.90
2018-08-11T08:17:15.904Z,19.50
2018-08-11T08:19:44.474Z,18.10
2018-08-11T08:22:13.104Z,17.90
2018-08-11T08:24:41.692Z,19.30
2018-08-11T08:27:10.342Z,18.70
2018-08-11T08:29:38.899Z,17.80
2018-08-11T08:32:07.563Z,19.00
2018-08-11T08:34:36.111Z,19.70
2018-08-11T08:37:04.734Z,18.80
2018-08-11T08:39:33.315Z,19.30
2018-08-11T08:42:01.848Z,19.20
2018-08-11T08:44:30.423Z,18.00
2018-08-11T08:46:59.102Z,16.80
2018-08-11T08:49:27.639Z,15.10
2018-08-11T08:51:56.220Z,16.60
2018-08-11T08:54:24.755Z,17.50
2018-08-11T08:56:53.321Z,17.60
2018-08-11T08:59:21.847Z,19.50
2018-08-11T09:01:50.476Z,21.40
2018-08-11T09:04:19.026Z,24.60
2018-08-11T09:06:47.642Z,25.30
2018-08-11T09:09:16.185Z,25.90
2018-08-11T09:11:45.262Z,26.20
2018-08-11T09:14:13.905Z,23.40
2018-08-11T09:16:42.515Z,19.50
2018-08-11T09:19:11.089Z,18.90
2018-08-11T09:21:39.654Z,21.70
2018-08-11T09:24:08.286Z,19.80
2018-08-11T09:26:36.875Z,20.40
2018-08-11T09:29:05.613Z,20.60
2018-08-11T09:31:34.159Z,18.20
2018-08-11T09:34:02.707Z,18.40
2018-08-11T09:36:31.278Z,17.00
2018-08-11T09:38:59.846Z,15.60
2018-08-11T09:41:28.470Z,16.90
2018-08-11T09:43:57.000Z,17.00
2018-08-11T09:46:25.643Z,19.10
2018-08-11T09:48:54.254Z,21.90
2018-08-11T09:51:22.785Z,24.10
2018-08-11T09:53:51.366Z,25.00
2018-08-11T09:56:20.007Z,25.60
2018-08-11T09:58:48.562Z,25.80
2018-08-11T10:01:22.479Z,24.70
2018-08-11T10:03:51.093Z,25.10
2018-08-11T10:06:19.678Z,27.30
2018-08-11T10:08:48.236Z,28.90
2018-08-11T10:11:16.818Z,29.00
2018-08-11T10:13:45.409Z,30.00
2018-08-11T10:16:13.991Z,32.10
2018-08-11T10:18:42.581Z,30.10
2018-08-11T10:21:11.164Z,29.90
2018-08-11T10:23:39.821Z,31.30
2018-08-11T10:26:20.856Z,30.00
2018-08-11T10:28:49.386Z,27.50
2018-08-11T10:31:17.956Z,25.70
2018-08-11T10:33:46.709Z,27.50
2018-08-11T10:36:15.276Z,29.00
2018-08-11T10:38:43.914Z,30.90
2018-08-11T10:41:12.515Z,31.60
2018-08-11T10:43:41.117Z,30.60
2018-08-11T10:46:09.691Z,28.90
2018-08-11T10:48:38.327Z,29.10
2018-08-11T10:51:06.611Z,27.90
2018-08-11T10:53:35.214Z,28.00
2018-08-11T10:56:03.927Z,28.20
2018-08-11T10:58:32.440Z,29.40
2018-08-11T11:01:01.094Z,29.00
2018-08-11T11:03:29.650Z,29.60
2018-08-11T11:05:58.262Z,30.50
2018-08-11T11:08:26.868Z,31.50
2018-08-11T11:10:55.413Z,30.90
2018-08-11T11:13:24.022Z,31.60
2018-08-11T11:15:52.588Z,32.80
2018-08-11T11:18:21.159Z,32.40
2018-08-11T11:20:49.741Z,30.90
2018-08-11T11:23:18.313Z,30.50
2018-08-11T11:25:46.894Z,29.90
2018-08-11T11:28:15.475Z,29.20
2018-08-11T11:30:44.055Z,28.00
2018-08-11T11:33:14.011Z,29.20
2018-08-11T11:35:42.578Z,30.00
2018-08-11T11:38:11.148Z,30.00
2018-08-11T11:40:39.728Z,29.40
2018-08-11T11:43:08.314Z,29.90
2018-08-11T11:45:36.891Z,29.20
2018-08-11T11:48:05.767Z,30.00
2018-08-11T11:50:34.429Z,29.90
2018-08-11T11:53:03.034Z,30.20
2018-08-11T11:55:31.591Z,31.90
2018-08-11T11:58:00.182Z,29.30
2018-08-11T12:00:28.746Z,29.70
2018-08-11T12:02:57.339Z,28.80
2018-08-11T12:05:25.956Z,29.40
2018-08-11T12:07:54.481Z,28.50
2018-08-11T12:10:23.075Z,28.60
2018-08-11T12:12:51.657Z,29.40
2018-08-11T12:15:20.266Z,29.20
2018-08-11T12:17:48.814Z,29.40
2018-08-11T12:20:17.352Z,29.90
2018-08-11T12:22:45.917Z,31.70
2018-08-11T12:25:14.486Z,30.80
2018-08-11T12:27:43.069Z,30.40
2018-08-11T12:30:11.998Z,30.40
2018-08-11T12:32:40.901Z,30.10
2018-08-11T12:35:09.557Z,29.90
2018-08-11T12:37:38.127Z,29.70
2018-08-11T12:40:06.694Z,30.00
2018-08-11T12:42:35.275Z,30.60
2018-08-11T12:45:03.893Z,30.00
2018-08-11T12:47:32.462Z,29.90
2018-08-11T12:50:01.039Z,28.90
2018-08-11T12:52:29.584Z,27.40
2018-08-11T12:54:58.146Z,28.40
2018-08-11T12:57:26.743Z,28.00
2018-08-11T12:59:55.298Z,28.40
2018-08-11T13:02:23.876Z,29.10
2018-08-11T13:04:52.431Z,27.60
2018-08-11T13:07:21.003Z,27.30
2018-08-11T13:09:49.568Z,27.00
2018-08-11T13:12:18.155Z,28.40
2018-08-11T13:14:46.743Z,28.60
2018-08-11T13:17:15.298Z,27.60
2018-08-11T13:19:43.830Z,27.60
2018-08-11T13:22:12.429Z,28.70
2018-08-11T13:24:41.026Z,28.00
2018-08-11T13:27:09.585Z,26.50
2018-08-11T13:29:38.200Z,26.50
2018-08-11T13:32:06.850Z,27.50
2018-08-11T13:34:35.456Z,27.80
2018-08-11T13:37:04.232Z,26.20
2018-08-11T13:39:32.779Z,25.60
2018-08-11T13:42:01.381Z,25.50
2018-08-11T13:44:29.894Z,25.50
2018-08-11T13:46:58.464Z,24.90
2018-08-11T13:49:27.096Z,24.20
2018-08-11T13:51:55.642Z,23.30
2018-08-11T13:54:24.281Z,24.30
2018-08-11T13:56:52.742Z,23.40
2018-08-11T13:59:21.343Z,24.40
2018-08-11T14:01:49.930Z,23.90
2018-08-11T14:04:18.550Z,23.50
2018-08-11T14:06:47.139Z,24.50
2018-08-11T14:09:15.719Z,25.40
2018-08-11T14:11:44.366Z,25.00
2018-08-11T14:14:12.929Z,25.20
2018-08-11T14:16:41.568Z,25.20
2018-08-11T14:19:10.128Z,25.40
2018-08-11T14:21:38.766Z,25.10
2018-08-11T14:24:07.332Z,25.30
2018-08-11T14:26:35.895Z,25.70
2018-08-11T14:29:04.551Z,25.80
2018-08-11T14:31:33.183Z,26.10
2018-08-11T14:34:01.730Z,26.80
2018-08-11T14:36:30.475Z,27.90
2018-08-11T14:38:59.097Z,27.60
2018-08-11T14:41:27.617Z,28.20
2018-08-11T14:43:56.213Z,27.70
2018-08-11T14:46:24.810Z,27.90
2018-08-11T14:48:53.454Z,27.60
2018-08-11T14:51:22.073Z,27.80
2018-08-11T14:53:50.660Z,27.70
2018-08-11T14:56:19.352Z,27.30
2018-08-11T14:58:47.906Z,28.30
2018-08-11T15:01:16.510Z,28.40
2018-08-11T15:03:45.142Z,29.20
2018-08-11T15:06:13.695Z,28.30
2018-08-11T15:08:42.754Z,28.40
2018-08-11T15:11:11.336Z,28.70
2018-08-11T15:13:39.937Z,28.00
2018-08-11T15:16:08.548Z,28.70
2018-08-11T15:18:37.195Z,28.90
2018-08-11T15:21:05.873Z,27.90
2018-08-11T15:23:35.348Z,28.10
2018-08-11T15:26:03.961Z,28.20
2018-08-11T15:28:32.538Z,28.20
2018-08-11T15:31:01.134Z,28.60
2018-08-11T15:33:29.897Z,28.60
2018-08-11T15:35:58.387Z,28.60
2018-08-11T15:38:27.019Z,29.20
2018-08-11T15:40:55.596Z,29.50
2018-08-11T15:43:24.207Z,29.70
2018-08-11T15:45:52.823Z,30.00
2018-08-11T15:48:21.482Z,30.50
2018-08-11T15:50:50.049Z,30.40
2018-08-11T15:53:18.605Z,30.80
2018-08-11T15:55:47.206Z,31.00
2018-08-11T15:58:15.776Z,30.80
2018-08-11T16:00:44.439Z,31.50
2018-08-11T16:03:13.073Z,32.00
2018-08-11T16:05:41.793Z,31.00
2018-08-11T16:08:10.339Z,30.90
2018-08-11T16:10:38.910Z,31.10
2018-08-11T16:13:07.518Z,30.90
2018-08-11T16:15:36.145Z,30.80
2018-08-11T16:18:04.821Z,30.90
2018-08-11T16:20:33.427Z,30.50
2018-08-11T16:23:02.055Z,30.30
2018-08-11T16:25:30.941Z,30.30
2018-08-11T16:27:59.515Z,30.00
2018-08-11T16:30:28.147Z,29.80
2018-08-11T16:32:56.711Z,30.30
2018-08-11T16:35:25.323Z,30.60
2018-08-11T16:37:53.902Z,30.30
2018-08-11T16:40:22.553Z,30.70
2018-08-11T16:42:51.138Z,30.20
2018-08-11T16:45:19.727Z,30.40
2018-08-11T16:47:48.371Z,30.30
2018-08-11T16:50:16.962Z,30.70
2018-08-11T16:52:45.507Z,31.70
2018-08-11T16:55:14.098Z,31.10
2018-08-11T16:57:42.744Z,31.40
2018-08-11T17:00:12.885Z,31.60
2018-08-11T17:02:41.948Z,31.80
2018-08-11T17:05:10.513Z,32.10
2018-08-11T17:07:39.071Z,32.30
2018-08-11T17:10:08.914Z,32.40
2018-08-11T17:12:37.915Z,32.70
2018-08-11T17:15:07.143Z,33.20
2018-08-11T17:17:35.788Z,32.70
2018-08-11T17:20:04.494Z,32.80
2018-08-11T17:22:33.097Z,33.10
2018-08-11T17:25:01.712Z,33.70
2018-08-11T17:27:30.315Z,33.30
2018-08-11T17:29:58.887Z,33.50
2018-08-11T17:32:27.463Z,33.90
2018-08-11T17:34:56.028Z,33.60
2018-08-11T17:37:24.617Z,34.50
2018-08-11T17:39:53.195Z,34.30
2018-08-11T17:42:21.739Z,34.60
2018-08-11T17:44:50.313Z,34.60
2018-08-11T17:47:18.898Z,34.60
2018-08-11T17:49:47.500Z,34.70
2018-08-11T17:52:16.132Z,34.40
2018-08-11T17:54:44.768Z,35.20
2018-08-11T17:57:13.331Z,35.50
2018-08-11T17:59:41.884Z,35.30
2018-08-11T18:02:10.494Z,35.70
2018-08-11T18:04:39.053Z,35.60
2018-08-11T18:07:07.777Z,35.60
2018-08-11T18:09:36.342Z,36.20
2018-08-11T18:12:04.974Z,36.20
2018-08-11T18:14:33.543Z,36.30
2018-08-11T18:17:02.113Z,36.20
2018-08-11T18:19:30.674Z,36.80
2018-08-11T18:21:59.234Z,36.70
2018-08-11T18:24:27.843Z,37.40
2018-08-11T18:26:56.376Z,37.50
2018-08-11T18:29:25.029Z,38.50
2018-08-11T18:31:53.592Z,38.50
2018-08-11T18:34:22.132Z,38.80
2018-08-11T18:36:50.794Z,39.00
2018-08-11T18:39:19.336Z,39.40
2018-08-11T18:41:47.901Z,39.40
2018-08-11T18:44:16.443Z,40.50
2018-08-11T18:46:44.993Z,40.60
2018-08-11T18:49:13.554Z,40.80
2018-08-11T18:51:42.084Z,40.70
2018-08-11T18:54:10.682Z,40.60
2018-08-11T18:56:39.303Z,41.30
2018-08-11T18:59:07.894Z,41.80
2018-08-11T19:01:36.500Z,42.80
2018-08-11T19:04:05.195Z,42.80
2018-08-11T19:06:33.802Z,43.20
2018-08-11T19:09:02.390Z,43.40
2018-08-11T19:11:30.978Z,44.20
2018-08-11T19:14:02.367Z,45.00
2018-08-11T19:16:30.973Z,44.70
2018-08-11T19:18:59.572Z,45.40
2018-08-11T19:21:28.170Z,45.10
2018-08-11T19:23:56.783Z,45.10
2018-08-11T19:26:25.411Z,47.10
2018-08-11T19:28:54.054Z,46.70
2018-08-11T19:31:22.640Z,47.10
2018-08-11T19:33:51.297Z,47.30
2018-08-11T19:36:20.057Z,47.40
2018-08-11T19:38:48.640Z,47.70
2018-08-11T19:41:17.195Z,47.20
2018-08-11T19:43:45.746Z,47.20
2018-08-11T19:46:14.450Z,47.30
2018-08-11T19:48:42.974Z,48.10
2018-08-11T19:51:11.604Z,48.50
2018-08-11T19:53:41.027Z,49.00
2018-08-11T19:56:09.611Z,48.90
2018-08-11T19:58:42.013Z,49.60
2018-08-11T20:01:10.707Z,49.60
2018-08-11T20:03:39.268Z,49.70
2018-08-11T20:06:07.832Z,49.60
2018-08-11T20:08:42.759Z,50.80
2018-08-11T20:11:11.297Z,50.30
2018-08-11T20:13:39.867Z,50.10
2018-08-11T20:16:08.482Z,50.90
2018-08-11T20:18:37.098Z,51.00
2018-08-11T20:21:05.744Z,51.20
2018-08-11T20:23:34.376Z,50.70
2018-08-11T20:26:02.963Z,50.90
2018-08-11T20:28:31.551Z,51.10
2018-08-11T20:31:00.208Z,52.20
2018-08-11T20:33:28.797Z,51.60
2018-08-11T20:35:57.427Z,51.80
2018-08-11T20:38:26.025Z,51.70
2018-08-11T20:40:54.670Z,52.40
2018-08-11T20:43:23.307Z,52.40
2018-08-11T20:45:51.934Z,52.50
2018-08-11T20:48:20.498Z,53.30
2018-08-11T20:50:49.076Z,53.30
2018-08-11T20:53:17.737Z,53.70
2018-08-11T20:55:46.297Z,53.50
2018-08-11T20:58:14.889Z,53.40
2018-08-11T21:00:43.535Z,54.20
2018-08-11T21:03:12.783Z,53.90
2018-08-11T21:05:41.409Z,54.00
2018-08-11T21:08:10.011Z,54.60
2018-08-11T21:10:38.627Z,55.20
2018-08-11T21:13:07.462Z,55.70
2018-08-11T21:15:36.135Z,55.90
2018-08-11T21:18:04.750Z,56.50
2018-08-11T21:20:33.362Z,57.20
2018-08-11T21:23:01.938Z,57.50
2018-08-11T21:25:30.605Z,57.00
2018-08-11T21:27:59.212Z,57.60
2018-08-11T21:30:27.841Z,57.70
2018-08-11T21:32:56.416Z,57.80
2018-08-11T21:35:25.040Z,58.50
2018-08-11T21:37:53.610Z,58.80
2018-08-11T21:40:22.198Z,58.70
2018-08-11T21:42:50.794Z,58.40
2018-08-11T21:45:19.391Z,58.80
2018-08-11T21:47:48.008Z,58.60
2018-08-11T21:50:16.652Z,58.30
2018-08-11T21:52:45.181Z,58.40
2018-08-11T21:55:13.759Z,58.70
2018-08-11T21:57:42.327Z,58.20
2018-08-11T22:00:21.925Z,58.80
2018-08-11T22:02:50.622Z,59.20
2018-08-11T22:05:19.183Z,58.80
2018-08-11T22:07:47.745Z,59.00
2018-08-11T22:10:16.351Z,58.90
2018-08-11T22:12:44.915Z,58.60
2018-08-11T22:15:16.440Z,58.80
2018-08-11T22:17:45.013Z,59.00
2018-08-11T22:20:13.897Z,59.80
2018-08-11T22:22:42.712Z,61.30
2018-08-11T22:25:11.892Z,61.10
2018-08-11T22:27:40.632Z,62.00
2018-08-11T22:30:09.907Z,62.10
2018-08-11T22:32:38.529Z,63.00
2018-08-11T22:35:08.985Z,62.80
2018-08-11T22:37:37.638Z,63.80
2018-08-11T22:40:06.887Z,63.20
2018-08-11T22:42:36.374Z,62.80
2018-08-11T22:45:07.967Z,62.00
2018-08-11T22:47:36.690Z,62.10
2018-08-11T22:50:07.215Z,62.30
2018-08-11T22:52:35.963Z,61.90
2018-08-11T22:55:04.939Z,62.00
2018-08-11T22:57:33.595Z,62.30
2018-08-11T23:00:02.186Z,63.10
2018-08-11T23:02:30.837Z,62.90
2018-08-11T23:04:59.426Z,63.20
2018-08-11T23:07:28.039Z,63.10
2018-08-11T23:09:56.636Z,63.30
2018-08-11T23:12:25.232Z,64.10
2018-08-11T23:14:53.793Z,64.60
2018-08-11T23:17:22.403Z,64.40
2018-08-11T23:19:51.032Z,65.10
2018-08-11T23:22:19.594Z,65.00
2018-08-11T23:24:48.205Z,64.50
2018-08-11T23:27:16.806Z,64.50
2018-08-11T23:29:45.386Z,64.30
2018-08-11T23:32:13.942Z,64.70
2018-08-11T23:34:42.488Z,64.90
2018-08-11T23:37:11.047Z,64.90
2018-08-11T23:39:39.630Z,65.20
2018-08-11T23:42:08.291Z,65.00
2018-08-11T23:44:36.849Z,65.40
2018-08-11T23:47:05.469Z,65.30
2018-08-11T23:49:34.044Z,65.40
2018-08-11T23:52:02.608Z,65.00
2018-08-11T23:54:31.209Z,65.50
2018-08-11T23:56:59.746Z,64.60
2018-08-11T23:59:28.355Z,65.80
